createdAt,value
2018-08-22T00:02:13.855Z,74.70
2018-08-22T00:04:41.409Z,97.02
2018-08-22T00:07:09.178Z,52.55
2018-08-22T00:09:36.920Z,88.00
2018-08-22T00:12:04.839Z,83.65
2018-08-22T00:14:32.735Z,76.62
2018-08-22T00:17:00.475Z,82.95
2018-08-22T00:19:27.921Z,73.20
2018-08-22T00:21:55.462Z,84.05
2018-08-22T00:24:22.940Z,69.53
2018-08-22T00:26:50.571Z,83.33
2018-08-22T00:29:18.886Z,73.17
2018-08-22T00:31:47.075Z,79.12
2018-08-22T00:34:15.743Z,84.77
2018-08-22T00:36:43.626Z,70.25
2018-08-22T00:39:11.455Z,70.43
2018-08-22T00:41:39.385Z,61.25
2018-08-22T00:44:06.899Z,54.23
2018-08-22T00:46:34.947Z,78.30
2018-08-22T00:49:02.574Z,91.95
2018-08-22T00:51:30.682Z,66.57
2018-08-22T00:53:58.276Z,67.87
2018-08-22T00:56:26.106Z,85.90
2018-08-22T00:58:54.831Z,54.53
2018-08-22T01:01:22.430Z,82.78
2018-08-22T01:03:50.563Z,81.85
2018-08-22T01:06:19.062Z,64.65
2018-08-22T01:08:47.772Z,70.62
2018-08-22T01:11:15.764Z,72.47
2018-08-22T01:13:43.977Z,52.23
2018-08-22T01:16:11.555Z,58.53
2018-08-22T01:18:39.575Z,69.10
2018-08-22T01:21:07.236Z,58.95
2018-08-22T01:23:34.854Z,57.75
2018-08-22T01:26:02.448Z,59.23
2018-08-22T01:28:30.365Z,60.70
2018-08-22T01:30:58.194Z,64.82
2018-08-22T01:33:26.071Z,50.47
2018-08-22T01:35:53.838Z,63.98
2018-08-22T01:38:21.588Z,62.35
2018-08-22T01:40:49.458Z,61.60
2018-08-22T01:43:17.294Z,51.37
2018-08-22T01:45:45.188Z,69.65
2018-08-22T01:48:13.788Z,65.52
2018-08-22T01:50:42.202Z,63.80
2018-08-22T01:53:09.764Z,58.08
2018-08-22T01:55:38.872Z,60.78
2018-08-22T01:58:06.441Z,70.25
2018-08-22T02:00:33.990Z,51.05
2018-08-22T02:03:01.523Z,57.20
2018-08-22T02:05:29.468Z,44.65
2018-08-22T02:07:57.626Z,51.85
2018-08-22T02:10:25.515Z,51.73
2018-08-22T02:12:52.968Z,55.30
2018-08-22T02:15:21.176Z,55.23
2018-08-22T02:17:49.137Z,54.80
2018-08-22T02:20:16.890Z,49.17
2018-08-22T02:22:45.664Z,49.95
2018-08-22T02:25:14.402Z,49.42
2018-08-22T02:27:42.132Z,47.60
2018-08-22T02:30:09.865Z,44.67
2018-08-22T02:32:37.333Z,44.43
2018-08-22T02:35:06.072Z,51.75
2018-08-22T02:37:33.905Z,44.60
2018-08-22T02:40:01.506Z,45.10
2018-08-22T02:42:29.009Z,52.20
2018-08-22T02:44:56.723Z,43.73
2018-08-22T02:47:24.952Z,55.23
2018-08-22T02:49:53.463Z,41.67
2018-08-22T02:52:21.308Z,44.88
2018-08-22T02:54:49.105Z,62.20
2018-08-22T02:57:16.647Z,38.73
2018-08-22T02:59:44.248Z,48.73
2018-08-22T03:02:11.765Z,52.23
2018-08-22T03:04:39.608Z,48.05
2018-08-22T03:07:07.237Z,45.28
2018-08-22T03:09:34.951Z,45.53
2018-08-22T03:12:03.006Z,55.17
2018-08-22T03:14:31.395Z,54.70
2018-08-22T03:16:59.164Z,42.38
2018-08-22T03:19:27.349Z,53.52
2018-08-22T03:21:56.013Z,52.62
2018-08-22T03:24:23.708Z,37.17
2018-08-22T03:26:51.444Z,41.80
2018-08-22T03:29:18.891Z,47.30
2018-08-22T03:31:46.510Z,48.40
2018-08-22T03:34:14.041Z,38.15
2018-08-22T03:36:41.837Z,40.20
2018-08-22T03:39:10.512Z,48.58
2018-08-22T03:41:39.112Z,40.40
2018-08-22T03:44:06.609Z,43.42
2018-08-22T03:46:34.085Z,38.00
2018-08-22T03:49:02.039Z,32.75
2018-08-22T03:51:29.717Z,40.78
2018-08-22T03:53:57.729Z,37.83
2018-08-22T03:56:25.684Z,27.35
2018-08-22T03:58:53.472Z,42.67
2018-08-22T04:01:21.025Z,51.13
2018-08-22T04:03:49.007Z,39.08
2018-08-22T04:06:17.397Z,43.10
2018-08-22T04:08:45.883Z,43.52
2018-08-22T04:11:13.385Z,47.05
2018-08-22T04:13:41.076Z,39.65
2018-08-22T04:16:08.883Z,36.98
2018-08-22T04:18:37.093Z,46.55
2018-08-22T04:21:05.033Z,29.37
2018-08-22T04:23:33.337Z,35.70
2018-08-22T04:26:00.778Z,47.90
2018-08-22T04:28:28.531Z,34.85
2018-08-22T04:30:56.350Z,43.05
2018-08-22T04:33:24.269Z,40.52
2018-08-22T04:35:52.711Z,48.35
2018-08-22T04:38:20.639Z,45.67
2018-08-22T04:40:48.343Z,44.18
2018-08-22T04:43:16.009Z,30.10
2018-08-22T04:45:43.723Z,37.23
2018-08-22T04:48:11.856Z,30.00
2018-08-22T04:50:39.425Z,41.02
2018-08-22T04:53:07.203Z,43.92
2018-08-22T04:55:35.051Z,35.20
2018-08-22T04:58:03.384Z,43.70
2018-08-22T05:00:31.131Z,49.25
2018-08-22T05:02:59.201Z,55.50
2018-08-22T05:05:27.967Z,43.23
2018-08-22T05:07:56.093Z,43.77
2018-08-22T05:10:24.834Z,32.13
2018-08-22T05:12:52.678Z,42.70
2018-08-22T05:15:20.357Z,46.45
2018-08-22T05:17:48.072Z,41.40
2018-08-22T05:20:16.021Z,31.52
2018-08-22T05:22:44.275Z,39.10
2018-08-22T05:25:12.242Z,35.33
2018-08-22T05:27:40.523Z,40.53
2018-08-22T05:30:08.189Z,41.00
2018-08-22T05:32:36.156Z,46.58
2018-08-22T05:35:03.693Z,35.05
2018-08-22T05:37:31.883Z,40.08
2018-08-22T05:39:59.522Z,40.05
2018-08-22T05:42:27.279Z,46.48
2018-08-22T05:44:55.103Z,37.50
2018-08-22T05:47:22.768Z,37.30
2018-08-22T05:49:51.272Z,47.10
2018-08-22T05:52:19.091Z,41.08
2018-08-22T05:54:47.101Z,46.28
2018-08-22T05:57:15.123Z,40.03
2018-08-22T05:59:43.648Z,41.40
2018-08-22T06:02:11.817Z,33.15
2018-08-22T06:04:39.275Z,47.85
2018-08-22T06:07:06.930Z,49.35
2018-08-22T06:09:34.392Z,60.53
2018-08-22T06:12:02.075Z,56.55
2018-08-22T06:14:29.639Z,47.95
2018-08-22T06:16:57.597Z,51.95
2018-08-22T06:19:26.064Z,48.37
2018-08-22T06:21:54.153Z,50.35
2018-08-22T06:24:22.117Z,62.43
2018-08-22T06:26:50.497Z,45.77
2018-08-22T06:29:18.120Z,64.72
2018-08-22T06:31:45.774Z,38.85
2018-08-22T06:34:13.499Z,30.70
2018-08-22T06:36:40.967Z,50.65
2018-08-22T06:39:09.452Z,51.27
2018-08-22T06:41:37.671Z,52.25
2018-08-22T06:44:05.509Z,61.08
2018-08-22T06:46:32.973Z,51.45
2018-08-22T06:49:00.952Z,54.18
2018-08-22T06:51:28.464Z,50.52
2018-08-22T06:53:56.692Z,61.40
2018-08-22T06:56:24.301Z,69.22
2018-08-22T06:58:52.382Z,50.87
2018-08-22T07:01:19.920Z,66.42
2018-08-22T07:03:47.754Z,59.08
2018-08-22T07:06:15.624Z,79.20
2018-08-22T07:08:43.320Z,75.78
2018-08-22T07:11:10.939Z,86.67
2018-08-22T07:13:38.590Z,79.42
2018-08-22T07:16:06.984Z,57.27
2018-08-22T07:18:34.876Z,56.10
2018-08-22T07:21:02.668Z,67.60
2018-08-22T07:23:30.957Z,111.47
2018-08-22T07:25:58.580Z,70.20
2018-08-22T07:28:27.231Z,63.52
2018-08-22T07:30:54.931Z,67.55
2018-08-22T07:33:22.659Z,84.32
2018-08-22T07:35:50.384Z,69.15
2018-08-22T07:38:18.045Z,59.85
2018-08-22T07:40:45.895Z,79.75
2018-08-22T07:43:13.339Z,74.97
2018-08-22T07:45:40.768Z,87.87
2018-08-22T07:48:08.792Z,84.05
2018-08-22T07:50:36.391Z,73.13
2018-08-22T07:53:10.829Z,63.73
2018-08-22T07:55:39.900Z,81.67
2018-08-22T07:58:07.937Z,73.15
2018-08-22T08:00:35.520Z,70.92
2018-08-22T08:03:03.295Z,83.80
2018-08-22T08:05:31.238Z,63.43
2018-08-22T08:07:59.244Z,86.47
2018-08-22T08:10:31.128Z,81.55
2018-08-22T08:12:59.187Z,98.70
2018-08-22T08:15:27.143Z,80.30
2018-08-22T08:17:54.868Z,94.00
2018-08-22T08:20:23.074Z,71.75
2018-08-22T08:22:51.022Z,100.37
2018-08-22T08:25:19.000Z,83.50
2018-08-22T08:27:46.557Z,101.67
2018-08-22T08:30:14.475Z,93.75
2018-08-22T08:32:42.161Z,101.97
2018-08-22T08:35:09.763Z,81.97
2018-08-22T08:37:37.380Z,65.95
2018-08-22T08:40:05.288Z,94.75
2018-08-22T08:42:32.929Z,69.92
2018-08-22T08:45:01.383Z,35.23
2018-08-22T08:47:29.005Z,81.40
2018-08-22T08:49:56.921Z,83.10
2018-08-22T08:52:24.578Z,111.55
2018-08-22T08:54:53.343Z,79.37
2018-08-22T08:57:21.801Z,79.90
2018-08-22T08:59:49.681Z,93.07
2018-08-22T09:02:18.181Z,122.87
2018-08-22T09:04:45.856Z,123.65
2018-08-22T09:07:13.503Z,117.03
2018-08-22T09:09:41.780Z,131.30
2018-08-22T09:12:09.725Z,114.30
2018-08-22T09:14:37.773Z,118.93
2018-08-22T09:17:05.865Z,143.87
2018-08-22T09:19:33.976Z,94.65
2018-08-22T09:22:01.549Z,83.33
2018-08-22T09:24:29.442Z,115.85
2018-08-22T09:26:57.967Z,138.97
2018-08-22T09:29:25.526Z,84.07
2018-08-22T09:31:53.537Z,144.82
2018-08-22T09:34:21.914Z,123.72
2018-08-22T09:36:49.593Z,165.70
2018-08-22T09:39:17.081Z,108.30
2018-08-22T09:41:45.423Z,174.75
2018-08-22T09:44:13.195Z,173.02
2018-08-22T09:46:41.313Z,179.40
2018-08-22T09:49:10.105Z,171.97
2018-08-22T09:51:38.129Z,134.43
2018-08-22T09:54:06.292Z,174.07
2018-08-22T09:56:34.128Z,166.95
2018-08-22T09:59:02.299Z,180.78
2018-08-22T10:01:35.774Z,194.03
2018-08-22T10:04:04.606Z,246.72
2018-08-22T10:06:51.213Z,258.30
2018-08-22T10:09:22.340Z,208.28
2018-08-22T10:11:49.824Z,212.68
2018-08-22T10:14:17.866Z,256.30
2018-08-22T10:16:45.870Z,132.47
2018-08-22T10:19:13.657Z,147.80
2018-08-22T10:21:41.249Z,233.47
2018-08-22T10:24:09.033Z,225.18
2018-08-22T10:26:36.546Z,187.20
2018-08-22T10:29:04.800Z,275.60
2018-08-22T10:31:33.454Z,262.10
2018-08-22T10:34:01.876Z,204.50
2018-08-22T10:36:30.129Z,205.20
2018-08-22T10:38:58.585Z,229.45
2018-08-22T10:41:27.122Z,229.07
2018-08-22T10:43:54.596Z,142.87
2018-08-22T10:46:22.388Z,209.93
2018-08-22T10:48:50.079Z,231.43
2018-08-22T10:51:17.999Z,212.50
2018-08-22T10:53:45.670Z,235.97
2018-08-22T10:56:13.513Z,201.25
2018-08-22T10:58:41.712Z,243.48
2018-08-22T11:01:09.173Z,215.15
2018-08-22T11:03:36.969Z,244.87
2018-08-22T11:06:04.409Z,235.83
2018-08-22T11:08:31.934Z,213.47
2018-08-22T11:10:59.934Z,300.75
2018-08-22T11:13:28.243Z,238.60
2018-08-22T11:15:56.389Z,230.75
2018-08-22T11:18:24.291Z,249.82
2018-08-22T11:20:53.007Z,256.45
2018-08-22T11:23:27.480Z,249.02
2018-08-22T11:26:01.235Z,236.47
2018-08-22T11:28:34.323Z,227.43
2018-08-22T11:31:07.564Z,253.20
2018-08-22T11:33:40.596Z,270.80
2018-08-22T11:36:07.695Z,213.47
2018-08-22T11:38:35.175Z,151.47
2018-08-22T11:41:03.343Z,211.95
2018-08-22T11:43:31.301Z,198.67
2018-08-22T11:46:00.705Z,210.02
2018-08-22T11:48:28.287Z,212.53
2018-08-22T11:50:56.254Z,241.27
2018-08-22T11:53:23.705Z,188.10
2018-08-22T11:55:51.764Z,287.15
2018-08-22T11:58:19.608Z,298.50
2018-08-22T12:00:47.231Z,295.50
2018-08-22T12:03:15.204Z,335.93
2018-08-22T12:05:43.024Z,225.82
2018-08-22T12:08:10.741Z,291.27
2018-08-22T12:10:38.491Z,284.45
2018-08-22T12:13:06.529Z,259.60
2018-08-22T12:15:35.416Z,277.80
2018-08-22T12:18:03.037Z,153.93
2018-08-22T12:20:30.900Z,221.72
2018-08-22T12:22:58.389Z,254.63
2018-08-22T12:25:26.076Z,106.45
2018-08-22T12:27:54.140Z,222.73
2018-08-22T12:30:22.863Z,267.27
2018-08-22T12:32:50.895Z,275.82
2018-08-22T12:35:19.305Z,250.20
2018-08-22T12:37:47.967Z,178.70
2018-08-22T12:40:16.346Z,270.33
2018-08-22T12:42:44.473Z,135.07
2018-08-22T12:45:12.089Z,218.17
2018-08-22T12:47:39.685Z,216.30
2018-08-22T12:50:07.702Z,243.43
2018-08-22T12:52:35.405Z,254.13
2018-08-22T12:55:03.344Z,203.58
2018-08-22T12:57:31.211Z,141.43
2018-08-22T12:59:58.875Z,148.95
2018-08-22T13:02:26.384Z,55.70
2018-08-22T13:04:54.244Z,99.07
2018-08-22T13:07:21.972Z,92.50
2018-08-22T13:09:49.781Z,101.22
2018-08-22T13:12:17.337Z,87.17
2018-08-22T13:14:45.044Z,59.58
2018-08-22T13:17:20.043Z,52.50
2018-08-22T13:20:01.182Z,32.33
2018-08-22T13:22:45.358Z,33.88
2018-08-22T13:25:22.301Z,23.67
2018-08-22T13:28:02.847Z,21.33
2018-08-22T13:30:46.478Z,15.90
2018-08-22T13:33:24.075Z,25.80
2018-08-22T13:36:05.641Z,9.10
2018-08-22T13:38:43.199Z,9.37
2018-08-22T13:41:22.257Z,9.90
2018-08-22T13:43:57.721Z,10.18
2018-08-22T13:46:38.287Z,9.93
2018-08-22T13:49:19.249Z,11.73
2018-08-22T13:51:59.463Z,9.20
2018-08-22T13:54:39.975Z,7.87
2018-08-22T13:57:25.577Z,7.45
2018-08-22T14:00:05.771Z,9.08
2018-08-22T14:02:47.670Z,13.90
2018-08-22T14:05:32.131Z,7.83
2018-08-22T14:08:09.466Z,6.87
2018-08-22T14:10:52.749Z,7.45
2018-08-22T14:13:32.614Z,6.95
2018-08-22T14:16:02.058Z,6.20
2018-08-22T14:18:48.793Z,6.30
2018-08-22T14:21:34.194Z,6.80
2018-08-22T14:24:18.673Z,7.47
2018-08-22T14:26:58.317Z,7.00
2018-08-22T14:29:41.753Z,7.15
2018-08-22T14:32:17.990Z,7.75
2018-08-22T14:34:51.417Z,8.73
2018-08-22T14:37:21.099Z,9.38
2018-08-22T14:39:55.716Z,8.10
2018-08-22T14:42:35.845Z,6.62
2018-08-22T14:45:21.320Z,7.40
2018-08-22T14:47:56.177Z,6.80
2018-08-22T14:50:40.667Z,7.85
2018-08-22T14:53:21.608Z,10.63
2018-08-22T14:56:03.087Z,8.55
2018-08-22T14:58:47.076Z,7.08
2018-08-22T15:01:32.713Z,6.60
2018-08-22T15:04:10.625Z,6.10
2018-08-22T15:06:48.174Z,6.80
2018-08-22T15:09:24.080Z,6.50
2018-08-22T15:12:02.956Z,6.70
2018-08-22T15:14:38.897Z,5.80
2018-08-22T15:17:06.576Z,6.00
2018-08-22T15:19:34.340Z,12.65
2018-08-22T15:22:02.178Z,8.60
2018-08-22T15:24:29.939Z,9.60
2018-08-22T15:26:57.417Z,6.40
2018-08-22T15:29:25.291Z,6.80
2018-08-22T15:31:53.080Z,8.15
2018-08-22T15:34:20.843Z,5.93
2018-08-22T15:36:48.341Z,6.60
2018-08-22T15:39:16.456Z,5.70
2018-08-22T15:41:44.507Z,5.30
2018-08-22T15:44:12.365Z,6.12
2018-08-22T15:46:39.844Z,9.98
2018-08-22T15:49:07.676Z,5.25
2018-08-22T15:51:35.219Z,7.10
2018-08-22T15:54:14.788Z,5.55
2018-08-22T15:56:43.020Z,6.62
2018-08-22T15:59:11.148Z,5.00
2018-08-22T16:01:38.758Z,5.30
2018-08-22T16:04:06.290Z,4.72
2018-08-22T16:06:34.072Z,4.50
2018-08-22T16:09:01.533Z,6.37
2018-08-22T16:11:29.312Z,5.37
2018-08-22T16:13:56.807Z,4.15
2018-08-22T16:16:24.845Z,5.80
2018-08-22T16:18:52.384Z,4.80
2018-08-22T16:21:20.183Z,4.00
2018-08-22T16:23:48.129Z,5.60
2018-08-22T16:26:16.233Z,6.10
2018-08-22T16:28:51.040Z,5.12
2018-08-22T16:31:18.823Z,5.70
2018-08-22T16:33:46.502Z,8.45
2018-08-22T16:36:19.371Z,4.00
2018-08-22T16:38:46.925Z,4.60
2018-08-22T16:41:14.513Z,8.07
2018-08-22T16:43:44.591Z,7.58
2018-08-22T16:46:13.666Z,4.15
2018-08-22T16:48:43.012Z,4.25
2018-08-22T16:51:10.640Z,5.10
2018-08-22T16:53:38.721Z,5.07
2018-08-22T16:56:06.224Z,4.50
2018-08-22T16:58:34.104Z,8.25
2018-08-22T17:01:02.043Z,7.83
2018-08-22T17:03:29.620Z,5.55
2018-08-22T17:06:02.731Z,5.75
2018-08-22T17:08:30.528Z,6.65
2018-08-22T17:11:06.796Z,7.20
2018-08-22T17:13:52.165Z,8.55
2018-08-22T17:16:19.956Z,5.80
2018-08-22T17:18:47.600Z,6.10
2018-08-22T17:21:16.017Z,6.93
2018-08-22T17:23:44.146Z,7.87
2018-08-22T17:26:13.550Z,8.25
2018-08-22T17:28:42.702Z,6.00
2018-08-22T17:31:10.912Z,8.48
2018-08-22T17:33:41.813Z,9.90
2018-08-22T17:36:10.654Z,6.25
2018-08-22T17:38:39.131Z,9.80
2018-08-22T17:41:06.560Z,6.65
2018-08-22T17:43:40.093Z,6.03
2018-08-22T17:46:08.103Z,7.87
2018-08-22T17:48:35.572Z,8.48
2018-08-22T17:51:03.315Z,8.28
2018-08-22T17:53:30.891Z,8.55
2018-08-22T17:55:58.344Z,9.50
2018-08-22T17:58:25.826Z,9.20
2018-08-22T18:00:53.934Z,6.53
2018-08-22T18:03:21.512Z,6.30
2018-08-22T18:05:49.502Z,6.97
2018-08-22T18:08:17.540Z,9.68
2018-08-22T18:10:44.998Z,6.78
2018-08-22T18:13:15.727Z,7.47
2018-08-22T18:15:44.281Z,6.83
2018-08-22T18:18:11.881Z,9.70
2018-08-22T18:20:44.813Z,7.42
2018-08-22T18:23:12.652Z,6.70
2018-08-22T18:25:43.870Z,7.97
2018-08-22T18:28:11.478Z,7.90
2018-08-22T18:30:38.977Z,8.05
2018-08-22T18:33:06.761Z,8.40
2018-08-22T18:35:34.251Z,11.90
2018-08-22T18:38:01.775Z,11.48
2018-08-22T18:40:31.099Z,10.70
2018-08-22T18:43:00.914Z,9.10
2018-08-22T18:45:28.861Z,7.50
2018-08-22T18:47:56.325Z,9.20
2018-08-22T18:50:23.811Z,8.08
2018-08-22T18:52:55.900Z,8.53
2018-08-22T18:55:27.272Z,9.73
2018-08-22T18:57:55.376Z,10.68
2018-08-22T19:00:23.295Z,8.27
2018-08-22T19:02:52.223Z,8.23
2018-08-22T19:05:25.534Z,11.20
2018-08-22T19:08:06.302Z,17.05
2018-08-22T19:10:36.816Z,10.18
2018-08-22T19:13:09.784Z,13.33
2018-08-22T19:15:38.300Z,14.07
2018-08-22T19:18:07.288Z,10.60
2018-08-22T19:20:35.460Z,11.55
2018-08-22T19:23:03.427Z,9.93
2018-08-22T19:25:30.997Z,9.60
2018-08-22T19:27:58.691Z,12.20
2018-08-22T19:30:26.504Z,11.37
2018-08-22T19:32:54.286Z,11.50
2018-08-22T19:35:22.043Z,10.70
2018-08-22T19:37:55.443Z,10.08
2018-08-22T19:40:24.688Z,10.32
2018-08-22T19:42:52.546Z,10.43
2018-08-22T19:45:20.377Z,8.55
2018-08-22T19:47:47.904Z,8.58
2018-08-22T19:50:15.449Z,10.30
2018-08-22T19:52:43.135Z,9.40
2018-08-22T19:55:11.299Z,17.70
2018-08-22T19:57:40.277Z,11.60
2018-08-22T20:00:08.996Z,11.60
2018-08-22T20:02:37.325Z,7.58
2018-08-22T20:05:05.960Z,9.90
2018-08-22T20:07:33.772Z,8.70
2018-08-22T20:10:01.451Z,10.10
2018-08-22T20:12:34.624Z,8.00
2018-08-22T20:15:02.396Z,11.33
2018-08-22T20:17:30.684Z,11.60
2018-08-22T20:19:59.123Z,8.33
2018-08-22T20:22:32.312Z,8.23
2018-08-22T20:25:01.305Z,10.70
2018-08-22T20:27:29.039Z,10.95
2018-08-22T20:30:04.763Z,9.40
2018-08-22T20:32:32.795Z,9.30
2018-08-22T20:35:01.543Z,11.18
2018-08-22T20:37:29.659Z,11.18
2018-08-22T20:40:02.974Z,8.25
2018-08-22T20:42:31.491Z,10.50
2018-08-22T20:44:59.121Z,7.92
2018-08-22T20:47:26.707Z,8.30
2018-08-22T20:49:55.017Z,11.05
2018-08-22T20:52:23.161Z,8.10
2018-08-22T20:54:56.403Z,7.92
2018-08-22T20:57:24.668Z,11.80
2018-08-22T20:59:52.648Z,8.63
2018-08-22T21:02:20.655Z,12.50
2018-08-22T21:04:48.572Z,7.60
2018-08-22T21:07:26.476Z,9.45
2018-08-22T21:09:54.880Z,8.48
2018-08-22T21:12:22.374Z,11.15
2018-08-22T21:14:50.895Z,8.30
2018-08-22T21:17:18.705Z,12.47
2018-08-22T21:19:46.869Z,10.43
2018-08-22T21:22:21.833Z,8.85
2018-08-22T21:24:49.824Z,10.75
2018-08-22T21:27:17.305Z,10.80
2018-08-22T21:29:45.001Z,11.25
2018-08-22T21:32:12.629Z,9.55
2018-08-22T21:34:40.939Z,9.15
2018-08-22T21:37:14.149Z,9.55
2018-08-22T21:39:41.572Z,8.25
2018-08-22T21:42:09.803Z,9.05
2018-08-22T21:44:37.240Z,10.43
2018-08-22T21:47:09.795Z,20.55
2018-08-22T21:49:37.537Z,30.70
2018-08-22T21:52:05.024Z,14.13
2018-08-22T21:54:32.751Z,20.40
2018-08-22T21:57:00.480Z,11.30
2018-08-22T21:59:28.131Z,18.15
2018-08-22T22:02:01.481Z,10.33
2018-08-22T22:04:34.306Z,8.95
2018-08-22T22:07:02.845Z,8.90
2018-08-22T22:09:30.499Z,9.80
2018-08-22T22:11:58.922Z,8.03
2018-08-22T22:14:36.745Z,10.03
2018-08-22T22:17:05.016Z,8.15
2018-08-22T22:19:33.608Z,8.50
2018-08-22T22:22:02.301Z,12.50
2018-08-22T22:24:30.664Z,8.40
2018-08-22T22:26:58.719Z,8.78
2018-08-22T22:29:29.612Z,11.00
2018-08-22T22:31:57.108Z,9.08
2018-08-22T22:34:24.692Z,8.70
2018-08-22T22:36:52.127Z,9.05
2018-08-22T22:39:30.528Z,9.10
2018-08-22T22:41:58.639Z,9.55
2018-08-22T22:44:26.755Z,8.15
2018-08-22T22:46:54.746Z,8.30
2018-08-22T22:49:22.973Z,8.10
2018-08-22T22:52:02.720Z,9.50
2018-08-22T22:54:46.855Z,8.15
2018-08-22T22:57:26.208Z,14.00
2018-08-22T23:00:02.694Z,11.20
2018-08-22T23:02:30.844Z,13.33
2018-08-22T23:04:59.934Z,11.75
2018-08-22T23:07:34.465Z,9.03
2018-08-22T23:10:03.221Z,10.10
2018-08-22T23:12:47.352Z,12.50
2018-08-22T23:15:17.435Z,10.38
2018-08-22T23:17:46.697Z,9.03
2018-08-22T23:20:32.500Z,8.30
2018-08-22T23:23:00.593Z,10.05
2018-08-22T23:25:28.997Z,12.10
2018-08-22T23:27:57.168Z,15.67
2018-08-22T23:30:30.015Z,8.60
2018-08-22T23:32:58.128Z,9.85
2018-08-22T23:35:27.125Z,11.95
2018-08-22T23:37:56.523Z,10.50
2018-08-22T23:40:25.708Z,12.28
2018-08-22T23:42:53.743Z,8.88
2018-08-22T23:45:21.411Z,7.87
2018-08-22T23:47:49.139Z,7.97
2018-08-22T23:50:17.912Z,10.07
2018-08-22T23:52:52.404Z,10.53
2018-08-22T23:55:21.610Z,8.23
2018-08-22T23:57:50.336Z,8.03
